KMSP/MSP METAR and TAF weather

Enter ICAO airport designator
Station Type Date Time Source
KMSP METAR 2019/08/23 15:53 UTC NOAA

KMSP 231553Z 12010KT 10SM SCT019 21/15 A3022 RMK AO2 SLP232 T02110150


Station Type Date Time Source
KMSP Decoded METAR 2019/08/23 15:53 UTC NOAA

Station name not available
Aug 23, 2019 - 11:53 AM EDT / 2019.08.23 1553 UTC
Wind: from the ESE (120 degrees) at 12 MPH (10 KT):0
Visibility: 10 mile(s):0
Sky conditions: partly cloudy
Temperature: 70.0 F (21.1 C)
Dew Point: 59.0 F (15.0 C)
Relative Humidity: 68%
Pressure (altimeter): 30.22 in. Hg (1023 hPa)
ob: KMSP 231553Z 12010KT 10SM SCT019 21/15 A3022 RMK AO2 SLP232 T02110150
cycle: 16

Station Type Date Time Source
KMSP TAF 2019/08/23 15:52 UTC NOAA

TAF
AMD KMSP 231450Z 2315/2418 12008KT P6SM SCT015 BKN050
TEMPO 2315/2317 BKN015
FM231800 12008KT P6SM SCT060
FM240000 12005KT P6SM SKC
FM241500 14010KT P6SM FEW040

Example: see airport list